sensor_id;sensor_type;location;lat;lon;timestamp;P1;durP1;ratioP1;P2;durP2;ratioP2
26953;SDS011;14508;50.924;11.600;2022-09-03T00:00:44;1.90;;;1.40;;
26953;SDS011;14508;50.924;11.600;2022-09-03T00:03:17;5.53;;;1.40;;
26953;SDS011;14508;50.924;11.600;2022-09-03T00:05:50;2.85;;;1.27;;
26953;SDS011;14508;50.924;11.600;2022-09-03T00:08:27;7.75;;;1.58;;
26953;SDS011;14508;50.924;11.600;2022-09-03T00:11:00;2.90;;;1.92;;
26953;SDS011;14508;50.924;11.600;2022-09-03T00:13:32;1.75;;;1.30;;
26953;SDS011;14508;50.924;11.600;2022-09-03T00:16:00;3.00;;;1.50;;
26953;SDS011;14508;50.924;11.600;2022-09-03T00:18:34;2.85;;;1.30;;
26953;SDS011;14508;50.924;11.600;2022-09-03T00:21:07;2.95;;;1.65;;
26953;SDS011;14508;50.924;11.600;2022-09-03T00:23:39;2.55;;;1.48;;
26953;SDS011;14508;50.924;11.600;2022-09-03T00:26:16;2.08;;;1.50;;
26953;SDS011;14508;50.924;11.600;2022-09-03T00:28:50;2.15;;;1.40;;
26953;SDS011;14508;50.924;11.600;2022-09-03T00:31:24;2.92;;;1.23;;
26953;SDS011;14508;50.924;11.600;2022-09-03T00:33:57;2.08;;;1.10;;
26953;SDS011;14508;50.924;11.600;2022-09-03T00:36:30;2.78;;;1.38;;
26953;SDS011;14508;50.924;11.600;2022-09-03T00:39:01;2.10;;;1.25;;
26953;SDS011;14508;50.924;11.600;2022-09-03T00:41:30;5.55;;;1.77;;
26953;SDS011;14508;50.924;11.600;2022-09-03T00:44:13;5.00;;;1.27;;
26953;SDS011;14508;50.924;11.600;2022-09-03T00:46:58;1.70;;;1.13;;
26953;SDS011;14508;50.924;11.600;2022-09-03T00:49:32;2.97;;;1.42;;
26953;SDS011;14508;50.924;11.600;2022-09-03T00:52:06;1.85;;;1.38;;
26953;SDS011;14508;50.924;11.600;2022-09-03T00:54:40;4.40;;;1.35;;
26953;SDS011;14508;50.924;11.600;2022-09-03T00:57:19;3.97;;;1.57;;
26953;SDS011;14508;50.924;11.600;2022-09-03T00:59:56;1.90;;;1.40;;
26953;SDS011;14508;50.924;11.600;2022-09-03T01:02:32;1.52;;;1.23;;
26953;SDS011;14508;50.924;11.600;2022-09-03T01:05:14;5.55;;;1.10;;
26953;SDS011;14508;50.924;11.600;2022-09-03T01:07:53;3.00;;;1.33;;
26953;SDS011;14508;50.924;11.600;2022-09-03T01:10:33;4.35;;;1.33;;
26953;SDS011;14508;50.924;11.600;2022-09-03T01:13:11;3.22;;;1.30;;
26953;SDS011;14508;50.924;11.600;2022-09-03T01:15:43;4.85;;;1.20;;
26953;SDS011;14508;50.924;11.600;2022-09-03T01:18:20;3.05;;;1.23;;
26953;SDS011;14508;50.924;11.600;2022-09-03T01:20:56;2.95;;;1.30;;
26953;SDS011;14508;50.924;11.600;2022-09-03T01:26:34;3.05;;;1.35;;
26953;SDS011;14508;50.924;11.600;2022-09-03T01:29:15;2.30;;;1.38;;
26953;SDS011;14508;50.924;11.600;2022-09-03T01:31:49;2.13;;;1.30;;
26953;SDS011;14508;50.924;11.600;2022-09-03T01:34:29;5.10;;;1.60;;
26953;SDS011;14508;50.924;11.600;2022-09-03T01:37:06;4.38;;;1.40;;
26953;SDS011;14508;50.924;11.600;2022-09-03T01:39:43;5.30;;;1.40;;
26953;SDS011;14508;50.924;11.600;2022-09-03T01:42:21;2.25;;;1.25;;
26953;SDS011;14508;50.924;11.600;2022-09-03T01:44:58;2.38;;;1.33;;
26953;SDS011;14508;50.924;11.600;2022-09-03T01:47:40;3.92;;;1.42;;
26953;SDS011;14508;50.924;11.600;2022-09-03T01:50:18;2.25;;;1.45;;
26953;SDS011;14508;50.924;11.600;2022-09-03T01:53:01;2.97;;;1.40;;
26953;SDS011;14508;50.924;11.600;2022-09-03T01:55:33;1.75;;;1.40;;
26953;SDS011;14508;50.924;11.600;2022-09-03T01:58:10;2.65;;;1.60;;
26953;SDS011;14508;50.924;11.600;2022-09-03T02:00:46;2.08;;;1.60;;
26953;SDS011;14508;50.924;11.600;2022-09-03T02:03:17;6.20;;;1.70;;
26953;SDS011;14508;50.924;11.600;2022-09-03T02:05:44;4.88;;;1.67;;
26953;SDS011;14508;50.924;11.600;2022-09-03T02:08:11;1.73;;;1.33;;
26953;SDS011;14508;50.924;11.600;2022-09-03T02:10:39;2.30;;;1.35;;
26953;SDS011;14508;50.924;11.600;2022-09-03T02:13:09;2.55;;;1.40;;
26953;SDS011;14508;50.924;11.600;2022-09-03T02:15:39;3.00;;;1.58;;
26953;SDS011;14508;50.924;11.600;2022-09-03T02:18:12;2.50;;;1.20;;
26953;SDS011;14508;50.924;11.600;2022-09-03T02:20:43;2.05;;;1.48;;
26953;SDS011;14508;50.924;11.600;2022-09-03T02:23:11;2.35;;;1.27;;
26953;SDS011;14508;50.924;11.600;2022-09-03T02:25:39;4.85;;;1.77;;
26953;SDS011;14508;50.924;11.600;2022-09-03T02:28:09;2.47;;;2.10;;
26953;SDS011;14508;50.924;11.600;2022-09-03T02:30:38;3.58;;;1.45;;
26953;SDS011;14508;50.924;11.600;2022-09-03T02:33:05;4.18;;;1.70;;
26953;SDS011;14508;50.924;11.600;2022-09-03T02:35:34;2.20;;;1.60;;
26953;SDS011;14508;50.924;11.600;2022-09-03T02:38:08;4.35;;;1.90;;
26953;SDS011;14508;50.924;11.600;2022-09-03T02:40:35;6.38;;;1.80;;
26953;SDS011;14508;50.924;11.600;2022-09-03T02:43:03;3.00;;;1.38;;
26953;SDS011;14508;50.924;11.600;2022-09-03T02:45:33;4.28;;;1.60;;
26953;SDS011;14508;50.924;11.600;2022-09-03T02:48:02;1.65;;;1.33;;
26953;SDS011;14508;50.924;11.600;2022-09-03T02:50:29;9.15;;;1.83;;
26953;SDS011;14508;50.924;11.600;2022-09-03T02:52:57;3.55;;;1.67;;
26953;SDS011;14508;50.924;11.600;2022-09-03T02:55:24;2.58;;;1.70;;
26953;SDS011;14508;50.924;11.600;2022-09-03T02:57:51;4.60;;;1.50;;
26953;SDS011;14508;50.924;11.600;2022-09-03T03:00:18;4.05;;;1.70;;
26953;SDS011;14508;50.924;11.600;2022-09-03T03:02:44;2.13;;;1.67;;
26953;SDS011;14508;50.924;11.600;2022-09-03T03:05:12;1.98;;;1.40;;
26953;SDS011;14508;50.924;11.600;2022-09-03T03:07:46;7.25;;;1.98;;
26953;SDS011;14508;50.924;11.600;2022-09-03T03:10:14;4.32;;;1.55;;
26953;SDS011;14508;50.924;11.600;2022-09-03T03:12:41;5.38;;;2.05;;
26953;SDS011;14508;50.924;11.600;2022-09-03T03:15:08;6.38;;;1.83;;
26953;SDS011;14508;50.924;11.600;2022-09-03T03:17:35;2.67;;;1.58;;
26953;SDS011;14508;50.924;11.600;2022-09-03T03:20:02;4.53;;;1.90;;
26953;SDS011;14508;50.924;11.600;2022-09-03T03:22:29;6.45;;;1.80;;
26953;SDS011;14508;50.924;11.600;2022-09-03T03:24:56;2.40;;;1.67;;
26953;SDS011;14508;50.924;11.600;2022-09-03T03:27:24;6.00;;;1.83;;
26953;SDS011;14508;50.924;11.600;2022-09-03T03:29:51;3.92;;;1.40;;
26953;SDS011;14508;50.924;11.600;2022-09-03T03:32:18;3.15;;;1.75;;
26953;SDS011;14508;50.924;11.600;2022-09-03T03:34:45;1.90;;;1.20;;
26953;SDS011;14508;50.924;11.600;2022-09-03T03:37:12;4.68;;;1.65;;
26953;SDS011;14508;50.924;11.600;2022-09-03T03:39:38;2.65;;;1.58;;
26953;SDS011;14508;50.924;11.600;2022-09-03T03:42:05;4.10;;;2.10;;
26953;SDS011;14508;50.924;11.600;2022-09-03T03:44:33;3.13;;;1.40;;
26953;SDS011;14508;50.924;11.600;2022-09-03T03:47:00;4.10;;;1.40;;
26953;SDS011;14508;50.924;11.600;2022-09-03T03:49:29;2.15;;;1.65;;
26953;SDS011;14508;50.924;11.600;2022-09-03T03:51:56;2.88;;;1.67;;
26953;SDS011;14508;50.924;11.600;2022-09-03T03:54:23;3.53;;;1.98;;
26953;SDS011;14508;50.924;11.600;2022-09-03T03:56:50;2.60;;;1.73;;
26953;SDS011;14508;50.924;11.600;2022-09-03T03:59:16;2.40;;;1.65;;
26953;SDS011;14508;50.924;11.600;2022-09-03T04:01:44;6.75;;;2.33;;
26953;SDS011;14508;50.924;11.600;2022-09-03T04:04:12;4.85;;;2.10;;
26953;SDS011;14508;50.924;11.600;2022-09-03T04:06:39;3.60;;;1.48;;
26953;SDS011;14508;50.924;11.600;2022-09-03T04:09:06;3.25;;;1.63;;
26953;SDS011;14508;50.924;11.600;2022-09-03T04:11:32;2.97;;;1.58;;
26953;SDS011;14508;50.924;11.600;2022-09-03T04:14:01;4.22;;;1.90;;
26953;SDS011;14508;50.924;11.600;2022-09-03T04:16:28;2.40;;;1.75;;
26953;SDS011;14508;50.924;11.600;2022-09-03T04:18:57;7.35;;;1.83;;
26953;SDS011;14508;50.924;11.600;2022-09-03T04:21:25;3.42;;;1.50;;
26953;SDS011;14508;50.924;11.600;2022-09-03T04:23:52;4.05;;;2.03;;
26953;SDS011;14508;50.924;11.600;2022-09-03T04:26:20;3.50;;;2.05;;
26953;SDS011;14508;50.924;11.600;2022-09-03T04:28:49;4.95;;;1.83;;
26953;SDS011;14508;50.924;11.600;2022-09-03T04:31:17;3.03;;;1.92;;
26953;SDS011;14508;50.924;11.600;2022-09-03T04:33:45;4.00;;;2.22;;
26953;SDS011;14508;50.924;11.600;2022-09-03T04:36:13;6.10;;;1.90;;
26953;SDS011;14508;50.924;11.600;2022-09-03T04:38:42;2.42;;;1.70;;
26953;SDS011;14508;50.924;11.600;2022-09-03T04:41:11;4.45;;;1.88;;
26953;SDS011;14508;50.924;11.600;2022-09-03T04:43:39;4.10;;;1.60;;
26953;SDS011;14508;50.924;11.600;2022-09-03T04:46:07;6.90;;;2.20;;
26953;SDS011;14508;50.924;11.600;2022-09-03T04:48:35;2.22;;;1.63;;
26953;SDS011;14508;50.924;11.600;2022-09-03T04:51:03;3.42;;;1.98;;
26953;SDS011;14508;50.924;11.600;2022-09-03T04:53:33;2.78;;;1.70;;
26953;SDS011;14508;50.924;11.600;2022-09-03T04:56:01;3.58;;;1.90;;
26953;SDS011;14508;50.924;11.600;2022-09-03T04:58:27;5.82;;;2.00;;
26953;SDS011;14508;50.924;11.600;2022-09-03T05:00:55;5.18;;;2.13;;
26953;SDS011;14508;50.924;11.600;2022-09-03T05:03:22;2.65;;;1.85;;
26953;SDS011;14508;50.924;11.600;2022-09-03T05:05:52;3.58;;;1.95;;
26953;SDS011;14508;50.924;11.600;2022-09-03T05:08:19;2.38;;;1.85;;
26953;SDS011;14508;50.924;11.600;2022-09-03T05:10:48;2.95;;;2.08;;
26953;SDS011;14508;50.924;11.600;2022-09-03T05:13:14;4.28;;;1.95;;
26953;SDS011;14508;50.924;11.600;2022-09-03T05:15:41;2.03;;;1.83;;
26953;SDS011;14508;50.924;11.600;2022-09-03T05:18:09;6.07;;;2.83;;
26953;SDS011;14508;50.924;11.600;2022-09-03T05:20:36;2.85;;;1.92;;
26953;SDS011;14508;50.924;11.600;2022-09-03T05:23:02;3.47;;;2.13;;
26953;SDS011;14508;50.924;11.600;2022-09-03T05:25:29;7.70;;;1.98;;
26953;SDS011;14508;50.924;11.600;2022-09-03T05:27:58;5.05;;;2.20;;
26953;SDS011;14508;50.924;11.600;2022-09-03T05:30:25;4.90;;;1.80;;
26953;SDS011;14508;50.924;11.600;2022-09-03T05:32:52;3.90;;;2.55;;
26953;SDS011;14508;50.924;11.600;2022-09-03T05:35:19;3.88;;;1.90;;
26953;SDS011;14508;50.924;11.600;2022-09-03T05:37:46;4.03;;;2.40;;
26953;SDS011;14508;50.924;11.600;2022-09-03T05:40:13;2.58;;;2.13;;
26953;SDS011;14508;50.924;11.600;2022-09-03T05:42:39;2.50;;;1.90;;
26953;SDS011;14508;50.924;11.600;2022-09-03T05:45:08;3.35;;;1.98;;
26953;SDS011;14508;50.924;11.600;2022-09-03T05:47:36;4.20;;;2.42;;
26953;SDS011;14508;50.924;11.600;2022-09-03T05:50:04;5.15;;;2.40;;
26953;SDS011;14508;50.924;11.600;2022-09-03T05:52:32;6.93;;;2.83;;
26953;SDS011;14508;50.924;11.600;2022-09-03T05:54:59;7.47;;;2.55;;
26953;SDS011;14508;50.924;11.600;2022-09-03T05:57:26;3.70;;;2.40;;
26953;SDS011;14508;50.924;11.600;2022-09-03T05:59:53;3.72;;;2.22;;
26953;SDS011;14508;50.924;11.600;2022-09-03T06:02:21;7.13;;;2.60;;
26953;SDS011;14508;50.924;11.600;2022-09-03T06:04:48;8.90;;;2.13;;
26953;SDS011;14508;50.924;11.600;2022-09-03T06:07:15;3.20;;;2.20;;
26953;SDS011;14508;50.924;11.600;2022-09-03T06:09:41;3.20;;;2.30;;
26953;SDS011;14508;50.924;11.600;2022-09-03T06:12:08;2.75;;;2.33;;
26953;SDS011;14508;50.924;11.600;2022-09-03T06:14:34;5.70;;;2.40;;
26953;SDS011;14508;50.924;11.600;2022-09-03T06:17:01;3.60;;;2.50;;
26953;SDS011;14508;50.924;11.600;2022-09-03T06:19:29;3.28;;;2.22;;
26953;SDS011;14508;50.924;11.600;2022-09-03T06:21:56;4.43;;;2.50;;
26953;SDS011;14508;50.924;11.600;2022-09-03T06:24:23;3.72;;;2.40;;
26953;SDS011;14508;50.924;11.600;2022-09-03T06:26:51;5.22;;;2.60;;
26953;SDS011;14508;50.924;11.600;2022-09-03T06:29:18;3.95;;;2.30;;
26953;SDS011;14508;50.924;11.600;2022-09-03T06:31:45;2.75;;;2.25;;
26953;SDS011;14508;50.924;11.600;2022-09-03T06:34:12;3.50;;;2.78;;
26953;SDS011;14508;50.924;11.600;2022-09-03T06:36:41;2.85;;;2.25;;
26953;SDS011;14508;50.924;11.600;2022-09-03T06:39:08;4.43;;;2.08;;
26953;SDS011;14508;50.924;11.600;2022-09-03T06:41:34;3.63;;;1.92;;
26953;SDS011;14508;50.924;11.600;2022-09-03T06:44:02;3.90;;;2.10;;
26953;SDS011;14508;50.924;11.600;2022-09-03T06:46:31;5.93;;;2.30;;
26953;SDS011;14508;50.924;11.600;2022-09-03T06:49:00;7.28;;;2.53;;
26953;SDS011;14508;50.924;11.600;2022-09-03T06:51:27;3.75;;;2.35;;
26953;SDS011;14508;50.924;11.600;2022-09-03T06:53:59;2.30;;;1.98;;
26953;SDS011;14508;50.924;11.600;2022-09-03T06:56:27;7.72;;;2.50;;
26953;SDS011;14508;50.924;11.600;2022-09-03T06:58:55;3.08;;;2.65;;
26953;SDS011;14508;50.924;11.600;2022-09-03T07:01:24;5.63;;;2.53;;
26953;SDS011;14508;50.924;11.600;2022-09-03T07:03:52;6.93;;;2.67;;
26953;SDS011;14508;50.924;11.600;2022-09-03T07:06:21;3.53;;;2.45;;
26953;SDS011;14508;50.924;11.600;2022-09-03T07:08:48;4.50;;;2.15;;
26953;SDS011;14508;50.924;11.600;2022-09-03T07:11:17;3.80;;;2.38;;
26953;SDS011;14508;50.924;11.600;2022-09-03T07:13:46;4.90;;;2.70;;
26953;SDS011;14508;50.924;11.600;2022-09-03T07:16:15;7.03;;;2.80;;
26953;SDS011;14508;50.924;11.600;2022-09-03T07:18:43;4.82;;;2.45;;
26953;SDS011;14508;50.924;11.600;2022-09-03T07:21:11;8.45;;;2.53;;
26953;SDS011;14508;50.924;11.600;2022-09-03T07:23:39;4.15;;;2.22;;
26953;SDS011;14508;50.924;11.600;2022-09-03T07:26:07;5.10;;;2.60;;
26953;SDS011;14508;50.924;11.600;2022-09-03T07:28:38;14.27;;;2.80;;
26953;SDS011;14508;50.924;11.600;2022-09-03T07:31:08;4.53;;;2.38;;
26953;SDS011;14508;50.924;11.600;2022-09-03T07:33:35;9.77;;;2.95;;
26953;SDS011;14508;50.924;11.600;2022-09-03T07:36:03;6.85;;;3.30;;
26953;SDS011;14508;50.924;11.600;2022-09-03T07:38:31;5.40;;;2.42;;
26953;SDS011;14508;50.924;11.600;2022-09-03T07:40:58;3.50;;;2.20;;
26953;SDS011;14508;50.924;11.600;2022-09-03T07:43:25;6.05;;;2.65;;
26953;SDS011;14508;50.924;11.600;2022-09-03T07:45:54;4.13;;;2.50;;
26953;SDS011;14508;50.924;11.600;2022-09-03T07:48:22;8.00;;;2.85;;
26953;SDS011;14508;50.924;11.600;2022-09-03T07:50:49;4.30;;;2.83;;
26953;SDS011;14508;50.924;11.600;2022-09-03T07:53:16;7.30;;;2.53;;
26953;SDS011;14508;50.924;11.600;2022-09-03T07:55:44;4.97;;;2.83;;
26953;SDS011;14508;50.924;11.600;2022-09-03T07:58:11;5.07;;;1.83;;
26953;SDS011;14508;50.924;11.600;2022-09-03T08:00:38;9.48;;;2.65;;
26953;SDS011;14508;50.924;11.600;2022-09-03T08:03:07;2.20;;;1.67;;
26953;SDS011;14508;50.924;11.600;2022-09-03T08:05:35;4.35;;;2.25;;
26953;SDS011;14508;50.924;11.600;2022-09-03T08:08:02;6.05;;;1.83;;
26953;SDS011;14508;50.924;11.600;2022-09-03T08:10:30;4.80;;;2.00;;
26953;SDS011;14508;50.924;11.600;2022-09-03T08:12:59;5.70;;;1.83;;
26953;SDS011;14508;50.924;11.600;2022-09-03T08:15:29;4.20;;;1.63;;
26953;SDS011;14508;50.924;11.600;2022-09-03T08:17:56;5.80;;;2.00;;
26953;SDS011;14508;50.924;11.600;2022-09-03T08:20:26;3.22;;;1.48;;
26953;SDS011;14508;50.924;11.600;2022-09-03T08:22:59;4.05;;;1.77;;
26953;SDS011;14508;50.924;11.600;2022-09-03T08:25:26;3.55;;;1.55;;
26953;SDS011;14508;50.924;11.600;2022-09-03T08:27:52;3.08;;;1.80;;
26953;SDS011;14508;50.924;11.600;2022-09-03T08:30:19;3.90;;;1.70;;
26953;SDS011;14508;50.924;11.600;2022-09-03T08:32:46;3.75;;;1.40;;
26953;SDS011;14508;50.924;11.600;2022-09-03T08:35:12;3.80;;;1.10;;
26953;SDS011;14508;50.924;11.600;2022-09-03T08:37:41;3.78;;;1.20;;
26953;SDS011;14508;50.924;11.600;2022-09-03T08:40:08;1.00;;;0.90;;
26953;SDS011;14508;50.924;11.600;2022-09-03T08:42:38;3.00;;;1.30;;
26953;SDS011;14508;50.924;11.600;2022-09-03T08:45:18;1.33;;;1.17;;
26953;SDS011;14508;50.924;11.600;2022-09-03T08:47:46;2.33;;;1.08;;
26953;SDS011;14508;50.924;11.600;2022-09-03T08:50:17;1.55;;;1.23;;
26953;SDS011;14508;50.924;11.600;2022-09-03T08:52:52;1.58;;;1.00;;
26953;SDS011;14508;50.924;11.600;2022-09-03T08:55:26;2.45;;;0.93;;
26953;SDS011;14508;50.924;11.600;2022-09-03T08:57:56;8.07;;;1.05;;
26953;SDS011;14508;50.924;11.600;2022-09-03T09:00:28;2.90;;;0.93;;
26953;SDS011;14508;50.924;11.600;2022-09-03T09:03:14;1.42;;;0.82;;
26953;SDS011;14508;50.924;11.600;2022-09-03T09:05:57;1.30;;;0.90;;
26953;SDS011;14508;50.924;11.600;2022-09-03T09:08:34;3.75;;;1.20;;
26953;SDS011;14508;50.924;11.600;2022-09-03T09:11:12;4.85;;;1.30;;
26953;SDS011;14508;50.924;11.600;2022-09-03T09:13:47;1.50;;;1.08;;
26953;SDS011;14508;50.924;11.600;2022-09-03T09:16:21;1.48;;;0.88;;
26953;SDS011;14508;50.924;11.600;2022-09-03T09:18:55;4.75;;;0.95;;
26953;SDS011;14508;50.924;11.600;2022-09-03T09:21:36;1.33;;;0.98;;
26953;SDS011;14508;50.924;11.600;2022-09-03T09:24:14;3.38;;;1.10;;
26953;SDS011;14508;50.924;11.600;2022-09-03T09:26:47;2.03;;;0.82;;
26953;SDS011;14508;50.924;11.600;2022-09-03T09:29:14;3.75;;;1.17;;
26953;SDS011;14508;50.924;11.600;2022-09-03T09:31:42;2.40;;;1.10;;
26953;SDS011;14508;50.924;11.600;2022-09-03T09:34:09;1.50;;;0.77;;
26953;SDS011;14508;50.924;11.600;2022-09-03T09:36:37;3.08;;;1.20;;
26953;SDS011;14508;50.924;11.600;2022-09-03T09:39:08;3.55;;;0.80;;
26953;SDS011;14508;50.924;11.600;2022-09-03T09:41:37;7.10;;;0.98;;
26953;SDS011;14508;50.924;11.600;2022-09-03T09:44:04;1.23;;;1.00;;
26953;SDS011;14508;50.924;11.600;2022-09-03T09:46:32;1.13;;;0.82;;
26953;SDS011;14508;50.924;11.600;2022-09-03T09:49:01;2.15;;;1.10;;
26953;SDS011;14508;50.924;11.600;2022-09-03T09:51:29;1.58;;;0.80;;
26953;SDS011;14508;50.924;11.600;2022-09-03T09:54:00;3.40;;;0.65;;
26953;SDS011;14508;50.924;11.600;2022-09-03T09:56:28;1.70;;;1.00;;
26953;SDS011;14508;50.924;11.600;2022-09-03T09:59:03;4.65;;;0.95;;
26953;SDS011;14508;50.924;11.600;2022-09-03T10:01:31;1.15;;;0.70;;
26953;SDS011;14508;50.924;11.600;2022-09-03T10:03:59;2.63;;;0.90;;
26953;SDS011;14508;50.924;11.600;2022-09-03T10:06:33;3.25;;;1.10;;
26953;SDS011;14508;50.924;11.600;2022-09-03T10:09:20;1.83;;;0.70;;
26953;SDS011;14508;50.924;11.600;2022-09-03T10:11:49;2.13;;;0.98;;
26953;SDS011;14508;50.924;11.600;2022-09-03T10:14:33;1.52;;;0.90;;
26953;SDS011;14508;50.924;11.600;2022-09-03T10:17:07;3.33;;;0.80;;
26953;SDS011;14508;50.924;11.600;2022-09-03T10:19:39;3.40;;;1.02;;
26953;SDS011;14508;50.924;11.600;2022-09-03T10:22:31;3.00;;;0.65;;
26953;SDS011;14508;50.924;11.600;2022-09-03T10:25:04;1.92;;;0.75;;
26953;SDS011;14508;50.924;11.600;2022-09-03T10:27:32;1.13;;;0.57;;
26953;SDS011;14508;50.924;11.600;2022-09-03T10:30:01;2.65;;;0.70;;
26953;SDS011;14508;50.924;11.600;2022-09-03T10:32:31;2.22;;;0.90;;
26953;SDS011;14508;50.924;11.600;2022-09-03T10:35:09;3.83;;;1.20;;
26953;SDS011;14508;50.924;11.600;2022-09-03T10:37:46;2.38;;;0.82;;
26953;SDS011;14508;50.924;11.600;2022-09-03T10:40:20;0.93;;;0.63;;
26953;SDS011;14508;50.924;11.600;2022-09-03T10:42:59;1.10;;;0.60;;
26953;SDS011;14508;50.924;11.600;2022-09-03T10:45:45;1.02;;;0.80;;
26953;SDS011;14508;50.924;11.600;2022-09-03T10:48:36;1.75;;;1.10;;
26953;SDS011;14508;50.924;11.600;2022-09-03T10:51:12;3.50;;;0.85;;
26953;SDS011;14508;50.924;11.600;2022-09-03T10:53:53;3.30;;;0.80;;
26953;SDS011;14508;50.924;11.600;2022-09-03T10:56:29;1.48;;;0.68;;
26953;SDS011;14508;50.924;11.600;2022-09-03T10:59:10;1.25;;;0.80;;
26953;SDS011;14508;50.924;11.600;2022-09-03T11:01:54;3.80;;;0.70;;
26953;SDS011;14508;50.924;11.600;2022-09-03T11:04:28;2.15;;;0.70;;
26953;SDS011;14508;50.924;11.600;2022-09-03T11:07:02;2.28;;;0.90;;
26953;SDS011;14508;50.924;11.600;2022-09-03T11:09:32;1.38;;;0.85;;
26953;SDS011;14508;50.924;11.600;2022-09-03T11:12:04;4.50;;;1.00;;
26953;SDS011;14508;50.924;11.600;2022-09-03T11:14:37;1.40;;;0.60;;
26953;SDS011;14508;50.924;11.600;2022-09-03T11:17:08;0.68;;;0.68;;
26953;SDS011;14508;50.924;11.600;2022-09-03T11:19:42;3.75;;;0.82;;
26953;SDS011;14508;50.924;11.600;2022-09-03T11:22:16;0.70;;;0.60;;
26953;SDS011;14508;50.924;11.600;2022-09-03T11:24:49;0.85;;;0.60;;
26953;SDS011;14508;50.924;11.600;2022-09-03T11:27:22;2.28;;;0.70;;
26953;SDS011;14508;50.924;11.600;2022-09-03T11:29:58;2.45;;;0.88;;
26953;SDS011;14508;50.924;11.600;2022-09-03T11:32:35;1.25;;;0.77;;
26953;SDS011;14508;50.924;11.600;2022-09-03T11:35:14;3.92;;;0.80;;
26953;SDS011;14508;50.924;11.600;2022-09-03T11:37:48;0.82;;;0.73;;
26953;SDS011;14508;50.924;11.600;2022-09-03T11:40:19;1.35;;;1.00;;
26953;SDS011;14508;50.924;11.600;2022-09-03T11:43:04;1.95;;;0.90;;
26953;SDS011;14508;50.924;11.600;2022-09-03T11:45:35;2.65;;;0.63;;
26953;SDS011;14508;50.924;11.600;2022-09-03T11:48:16;1.52;;;0.60;;
26953;SDS011;14508;50.924;11.600;2022-09-03T11:50:52;2.00;;;0.70;;
26953;SDS011;14508;50.924;11.600;2022-09-03T11:53:23;3.45;;;0.80;;
26953;SDS011;14508;50.924;11.600;2022-09-03T11:55:54;2.10;;;0.90;;
26953;SDS011;14508;50.924;11.600;2022-09-03T11:58:25;1.58;;;0.85;;
26953;SDS011;14508;50.924;11.600;2022-09-03T12:00:57;3.20;;;0.93;;
26953;SDS011;14508;50.924;11.600;2022-09-03T12:03:28;2.53;;;0.80;;
26953;SDS011;14508;50.924;11.600;2022-09-03T12:06:09;1.35;;;0.63;;
26953;SDS011;14508;50.924;11.600;2022-09-03T12:09:00;2.87;;;0.90;;
26953;SDS011;14508;50.924;11.600;2022-09-03T12:11:55;2.60;;;0.80;;
26953;SDS011;14508;50.924;11.600;2022-09-03T12:14:31;2.17;;;1.05;;
26953;SDS011;14508;50.924;11.600;2022-09-03T12:17:12;1.02;;;0.82;;
26953;SDS011;14508;50.924;11.600;2022-09-03T12:19:48;2.15;;;0.93;;
26953;SDS011;14508;50.924;11.600;2022-09-03T12:22:18;2.63;;;1.00;;
26953;SDS011;14508;50.924;11.600;2022-09-03T12:24:48;1.40;;;0.75;;
26953;SDS011;14508;50.924;11.600;2022-09-03T12:27:15;2.33;;;1.00;;
26953;SDS011;14508;50.924;11.600;2022-09-03T12:29:51;3.58;;;1.00;;
26953;SDS011;14508;50.924;11.600;2022-09-03T12:34:50;1.13;;;0.98;;
26953;SDS011;14508;50.924;11.600;2022-09-03T12:37:18;1.30;;;0.90;;
26953;SDS011;14508;50.924;11.600;2022-09-03T12:39:51;1.20;;;0.80;;
26953;SDS011;14508;50.924;11.600;2022-09-03T12:42:20;0.80;;;0.60;;
26953;SDS011;14508;50.924;11.600;2022-09-03T12:44:51;1.58;;;0.80;;
26953;SDS011;14508;50.924;11.600;2022-09-03T12:47:18;1.40;;;0.82;;
26953;SDS011;14508;50.924;11.600;2022-09-03T12:49:47;1.02;;;0.60;;
26953;SDS011;14508;50.924;11.600;2022-09-03T12:52:17;1.38;;;0.68;;
26953;SDS011;14508;50.924;11.600;2022-09-03T12:54:51;2.13;;;0.85;;
26953;SDS011;14508;50.924;11.600;2022-09-03T12:57:21;2.00;;;0.80;;
26953;SDS011;14508;50.924;11.600;2022-09-03T12:59:51;1.10;;;0.98;;
26953;SDS011;14508;50.924;11.600;2022-09-03T13:02:21;1.00;;;0.70;;
26953;SDS011;14508;50.924;11.600;2022-09-03T13:04:53;1.58;;;0.77;;
26953;SDS011;14508;50.924;11.600;2022-09-03T13:07:22;2.70;;;1.08;;
26953;SDS011;14508;50.924;11.600;2022-09-03T13:09:55;5.38;;;1.23;;
26953;SDS011;14508;50.924;11.600;2022-09-03T13:12:29;3.42;;;0.90;;
26953;SDS011;14508;50.924;11.600;2022-09-03T13:15:03;4.88;;;0.85;;
26953;SDS011;14508;50.924;11.600;2022-09-03T13:17:40;1.90;;;0.73;;
26953;SDS011;14508;50.924;11.600;2022-09-03T13:20:22;4.57;;;0.85;;
26953;SDS011;14508;50.924;11.600;2022-09-03T13:23:06;2.20;;;1.00;;
26953;SDS011;14508;50.924;11.600;2022-09-03T13:25:41;2.15;;;0.75;;
26953;SDS011;14508;50.924;11.600;2022-09-03T13:28:18;1.98;;;0.80;;
26953;SDS011;14508;50.924;11.600;2022-09-03T13:30:56;3.13;;;0.90;;
26953;SDS011;14508;50.924;11.600;2022-09-03T13:33:31;1.35;;;0.98;;
26953;SDS011;14508;50.924;11.600;2022-09-03T13:36:06;3.60;;;0.70;;
26953;SDS011;14508;50.924;11.600;2022-09-03T13:38:41;3.47;;;1.00;;
26953;SDS011;14508;50.924;11.600;2022-09-03T13:41:11;1.17;;;1.05;;
26953;SDS011;14508;50.924;11.600;2022-09-03T13:43:45;1.48;;;0.85;;
26953;SDS011;14508;50.924;11.600;2022-09-03T13:46:19;1.23;;;0.82;;
26953;SDS011;14508;50.924;11.600;2022-09-03T13:48:51;2.60;;;1.02;;
26953;SDS011;14508;50.924;11.600;2022-09-03T13:51:48;4.47;;;0.90;;
26953;SDS011;14508;50.924;11.600;2022-09-03T13:54:20;0.98;;;0.73;;
26953;SDS011;14508;50.924;11.600;2022-09-03T13:56:53;1.60;;;0.85;;
26953;SDS011;14508;50.924;11.600;2022-09-03T13:59:27;4.20;;;1.33;;
26953;SDS011;14508;50.924;11.600;2022-09-03T14:02:01;2.30;;;1.00;;
26953;SDS011;14508;50.924;11.600;2022-09-03T14:04:39;4.90;;;1.08;;
26953;SDS011;14508;50.924;11.600;2022-09-03T14:07:16;3.05;;;1.00;;
26953;SDS011;14508;50.924;11.600;2022-09-03T14:09:51;4.32;;;1.00;;
26953;SDS011;14508;50.924;11.600;2022-09-03T14:12:24;2.70;;;1.17;;
26953;SDS011;14508;50.924;11.600;2022-09-03T14:15:02;4.40;;;1.15;;
26953;SDS011;14508;50.924;11.600;2022-09-03T14:17:36;3.42;;;1.17;;
26953;SDS011;14508;50.924;11.600;2022-09-03T14:20:10;3.58;;;0.90;;
26953;SDS011;14508;50.924;11.600;2022-09-03T14:22:46;1.08;;;0.80;;
26953;SDS011;14508;50.924;11.600;2022-09-03T14:25:17;4.82;;;0.95;;
26953;SDS011;14508;50.924;11.600;2022-09-03T14:27:46;1.80;;;1.02;;
26953;SDS011;14508;50.924;11.600;2022-09-03T14:30:18;7.95;;;0.85;;
26953;SDS011;14508;50.924;11.600;2022-09-03T14:32:53;2.15;;;0.98;;
26953;SDS011;14508;50.924;11.600;2022-09-03T14:35:34;1.23;;;0.70;;
26953;SDS011;14508;50.924;11.600;2022-09-03T14:41:06;1.17;;;0.80;;
26953;SDS011;14508;50.924;11.600;2022-09-03T14:43:52;2.60;;;0.80;;
26953;SDS011;14508;50.924;11.600;2022-09-03T14:46:37;3.50;;;1.08;;
26953;SDS011;14508;50.924;11.600;2022-09-03T14:49:17;2.58;;;1.30;;
26953;SDS011;14508;50.924;11.600;2022-09-03T14:52:00;2.00;;;1.05;;
26953;SDS011;14508;50.924;11.600;2022-09-03T14:54:43;2.30;;;1.02;;
26953;SDS011;14508;50.924;11.600;2022-09-03T15:00:21;5.05;;;2.05;;
26953;SDS011;14508;50.924;11.600;2022-09-03T15:03:02;2.15;;;1.00;;
26953;SDS011;14508;50.924;11.600;2022-09-03T15:05:48;1.85;;;0.98;;
26953;SDS011;14508;50.924;11.600;2022-09-03T15:08:35;1.63;;;1.20;;
26953;SDS011;14508;50.924;11.600;2022-09-03T15:11:14;2.60;;;1.20;;